Dallas, TX (75201)

1:46 AM CDT on July 29, 2016 (GMT -0500)
MAYOR'S WAY | | Change Station

Elev 492 ft 32.80 °N, 96.81 °W | Updated 6 minutes ago

Mostly Cloudy
Mostly Cloudy
79.7 °F
Feels Like 83 °F
N
3.2
Wind Variable Wind from ESE

Today
High -- | Low -- °F
--% Chance of Precip.
Yesterday
High -- | Low -- °F
Precip. -- in
Pressure 29.94 in
Visibility 10.0 miles
Clouds Scattered Clouds 25000 ft
Mostly Cloudy 31000 ft
Heat Index 83 °F
Dew Point 70 °F
Humidity 72%
Rainfall 0.00 in
Snow Depth Not available.
6:39 AM 8:27 PM
Waning Crescent, 24% visible
METAR KDAL 290553Z 17008KT 10SM SCT250 BKN310 27/22 A2996 RMK AO2 SLP136 T02720217 10333 20272 403670267 53005
Pressure 29.94 in
Visibility 10.0 miles
Clouds Scattered Clouds 25000 ft
Mostly Cloudy 31000 ft
Heat Index 83 °F
Dew Point 70 °F
Humidity 72%
Rainfall 0.00 in
Snow Depth Not available.
6:39 AM 8:27 PM
Waning Crescent, 24% visible
METAR KDAL 290553Z 17008KT 10SM SCT250 BKN310 27/22 A2996 RMK AO2 SLP136 T02720217 10333 20272 403670267 53005

10-Day Weather Forecast

Almanac

Astronomy

Jul. 29, 2016 Rise Set
Actual Time
Civil Twilight
Nautical Twilight
Astronomical Twilight
Moon
Length of Visible Light
Length of Day
Tomorrow will be .
, % of the Moon is Illuminated

Today's Extremes

State Highs State Lows

Community

WunderPhotos

Upload Photos

1,928,299 photos uploaded!

WunderBlog® & News

Nearby

Air Quality

  Air Quality AQ Index Pollutant
Not available.

Snow Depth

Station Depth Elevation

Earthquake Activity

City Distance Mag. Time & Date
Minimum magnitude displayed is 2.5.

Coastal Water Temperatures

Place Temperature

Stations

Nearby Weather Stations

Station Location Temp. Windchill Dew Point Humidity Wind Precip. Elev Updated Type
                   

Watches & Warnings

There are currently no watches in effect.